Time;durP1;ratioP1;P1;durP2;ratioP2;P2;SDS_P1;SDS_P2;PMS_P1;PMS_P2;Temp;Humidity;BMP_temperature;BMP_pressure;BME280_temperature;BME280_humidity;BME280_pressure;Samples;Min_cycle;Max_cycle;Signal;HPM_P1;HPM_P2
2024/03/02 00:00:13;;;;;;;23.67;11.85;;;10.80;99.90;;;;;;5014414;28;20388;-74
2024/03/02 00:02:48;;;;;;;;;;;10.80;99.90;;;;;;5014881;28;20092;-75
2024/03/02 00:05:23;;;;;;;19.38;10.93;;;10.80;99.90;;;;;;5014174;28;19996;-75
2024/03/02 00:07:59;;;;;;;18.95;10.88;;;10.80;99.90;;;;;;5014081;28;20069;-74
2024/03/02 00:10:31;;;;;;;17.60;11.32;;;10.80;99.90;;;;;;5014071;28;20689;-75
2024/03/02 00:12:58;;;;;;;24.27;12.60;;;10.70;99.90;;;;;;5013927;28;20474;-74
2024/03/02 00:15:45;;;;;;;21.73;11.25;;;10.70;99.90;;;;;;5013895;28;20498;-74
2024/03/02 00:18:13;;;;;;;19.48;11.07;;;10.70;99.90;;;;;;5013642;28;20474;-74
2024/03/02 00:20:39;;;;;;;18.60;11.55;;;10.70;99.90;;;;;;5014016;28;20049;-74
2024/03/02 00:23:07;;;;;;;19.65;11.82;;;10.60;99.90;;;;;;5013844;28;20505;-74
2024/03/02 00:25:53;;;;;;;20.27;12.18;;;10.60;99.90;;;;;;5013760;28;20553;-74
2024/03/02 00:28:33;;;;;;;21.10;11.15;;;10.60;99.90;;;;;;5013737;28;20044;-74
2024/03/02 00:31:12;;;;;;;19.20;10.95;;;10.60;99.90;;;;;;5013402;28;20022;-74
2024/03/02 00:33:45;;;;;;;22.50;10.93;;;10.60;99.90;;;;;;5013619;28;20049;-74
2024/03/02 00:36:14;;;;;;;19.00;11.95;;;10.60;99.90;;;;;;5013569;28;20057;-74
2024/03/02 00:38:51;;;;;;;19.80;11.57;;;10.60;99.90;;;;;;5012443;28;20034;-74
2024/03/02 00:41:26;;;;;;;16.95;10.75;;;10.60;99.90;;;;;;5013332;28;20053;-74
2024/03/02 00:44:08;;;;;;;20.77;11.50;;;10.60;99.90;;;;;;5013348;28;20036;-74
2024/03/02 00:46:43;;;;;;;21.58;12.85;;;10.60;99.90;;;;;;5014060;28;20500;-74
2024/03/02 00:49:12;;;;;;;19.42;12.50;;;10.60;99.90;;;;;;5012526;28;20086;-74
2024/03/02 00:51:39;;;;;;;18.58;12.18;;;10.60;99.90;;;;;;5013251;28;20030;-74
2024/03/02 00:54:09;;;;;;;22.13;13.00;;;10.60;99.90;;;;;;5013601;28;20034;-74
2024/03/02 00:56:36;;;;;;;23.27;13.00;;;10.60;99.90;;;;;;5013703;28;20049;-74
2024/03/02 00:59:23;;;;;;;15.02;10.82;;;10.60;99.90;;;;;;5013609;28;20029;-74
2024/03/02 01:08:51;;;;;;;16.90;9.05;;;10.60;99.90;;;;;;4970706;28;20042;-74
2024/03/02 01:14:54;;;;;;;14.50;6.45;;;10.60;99.90;;;;;;4993492;28;20537;-74
2024/03/02 01:17:19;;;;;;;17.02;8.43;;;10.60;99.90;;;;;;4992960;28;20028;-74
2024/03/02 01:19:57;;;;;;;20.45;9.18;;;10.60;99.90;;;;;;4992746;28;20105;-74
2024/03/02 01:22:27;;;;;;;16.20;8.90;;;10.70;99.90;;;;;;4991909;28;20014;-74
2024/03/02 01:24:55;;;;;;;17.58;9.52;;;10.60;99.90;;;;;;4992409;28;20065;-74
2024/03/02 01:27:21;;;;;;;12.85;8.65;;;10.60;99.90;;;;;;4991789;28;20026;-74
2024/03/02 01:29:47;;;;;;;18.20;9.02;;;10.60;99.90;;;;;;4993398;28;20030;-74
2024/03/02 01:32:13;;;;;;;18.73;8.30;;;10.60;99.90;;;;;;4993132;28;20033;-74
2024/03/02 01:34:38;;;;;;;11.88;7.95;;;10.60;99.90;;;;;;4993421;28;20031;-74
2024/03/02 01:37:04;;;;;;;19.90;8.65;;;10.60;99.90;;;;;;4993424;28;20035;-74
2024/03/02 01:39:30;;;;;;;18.58;8.32;;;10.60;99.90;;;;;;4992594;28;20109;-74
2024/03/02 01:41:56;;;;;;;17.52;8.43;;;10.60;99.90;;;;;;5006915;28;20029;-74
2024/03/02 01:44:21;;;;;;;18.95;8.55;;;10.60;99.90;;;;;;5012315;28;20034;-74
2024/03/02 01:46:47;;;;;;;17.50;8.95;;;10.60;99.90;;;;;;5012364;28;20045;-74
2024/03/02 01:49:13;;;;;;;16.45;7.57;;;10.60;99.90;;;;;;5012405;28;20065;-74
2024/03/02 01:51:39;;;;;;;14.25;7.57;;;10.70;99.90;;;;;;5012147;28;20033;-74
2024/03/02 01:54:05;;;;;;;17.40;7.88;;;10.70;99.90;;;;;;5012708;28;20113;-74
2024/03/02 01:56:30;;;;;;;11.80;7.10;;;10.70;99.90;;;;;;5012693;28;20030;-74
2024/03/02 01:58:56;;;;;;;13.35;7.57;;;10.70;99.90;;;;;;5010441;28;20038;-74
2024/03/02 02:01:22;;;;;;;12.52;7.85;;;10.60;99.90;;;;;;5008617;28;20121;-74
2024/03/02 02:03:48;;;;;;;16.38;7.75;;;10.60;99.90;;;;;;5010107;28;20038;-74
2024/03/02 02:06:13;;;;;;;14.60;7.70;;;10.60;99.90;;;;;;5012410;28;20034;-74
2024/03/02 02:08:39;;;;;;;13.63;7.18;;;10.60;99.90;;;;;;5012599;28;20038;-74
2024/03/02 02:11:05;;;;;;;15.95;8.10;;;10.60;99.90;;;;;;5012306;28;20084;-74
2024/03/02 02:13:31;;;;;;;15.93;8.13;;;10.60;99.90;;;;;;5012168;28;20034;-74
2024/03/02 02:16:07;;;;;;;16.80;7.88;;;10.60;99.90;;;;;;5012286;28;20026;-74
2024/03/02 02:18:33;;;;;;;15.60;7.35;;;10.60;99.90;;;;;;5012392;28;20029;-74
2024/03/02 02:20:59;;;;;;;17.23;6.82;;;10.60;99.90;;;;;;5015355;28;20030;-74
2024/03/02 02:23:25;;;;;;;13.75;7.13;;;10.60;99.90;;;;;;5016221;28;20389;-74
2024/03/02 02:25:51;;;;;;;16.83;6.65;;;10.60;99.90;;;;;;5016738;28;20080;-74
2024/03/02 02:28:17;;;;;;;11.98;6.47;;;10.60;99.90;;;;;;5016423;28;20504;-74
2024/03/02 02:30:43;;;;;;;15.57;6.03;;;10.60;99.90;;;;;;5016619;28;20057;-73
2024/03/02 02:33:17;;;;;;;12.15;5.43;;;10.60;99.90;;;;;;5016643;28;20453;-74
2024/03/02 02:35:58;;;;;;;13.20;5.45;;;10.60;99.90;;;;;;5015619;28;20041;-74
2024/03/02 02:42:41;;;;;;;9.23;5.53;;;10.60;99.90;;;;;;5013819;28;20102;-74
2024/03/02 02:45:22;;;;;;;16.38;6.55;;;10.60;99.90;;;;;;5011995;28;20117;-74
2024/03/02 02:47:52;;;;;;;13.75;5.50;;;10.70;99.90;;;;;;5014208;28;20065;-74
2024/03/02 02:50:38;;;;;;;12.23;5.25;;;10.70;99.90;;;;;;5015246;28;20049;-74
2024/03/02 02:53:25;;;;;;;9.80;4.55;;;10.70;99.90;;;;;;5015894;28;20375;-74
2024/03/02 02:56:14;;;;;;;10.02;5.15;;;10.70;99.90;;;;;;5015301;28;20386;-74
2024/03/02 02:58:46;;;;;;;17.58;5.00;;;10.70;99.90;;;;;;5009751;28;20045;-74
2024/03/02 03:01:21;;;;;;;11.70;5.20;;;10.70;99.90;;;;;;5015692;28;20371;-74
2024/03/02 03:03:46;;;;;;;17.05;7.03;;;10.70;99.90;;;;;;5015488;28;20480;-74
2024/03/02 03:06:12;;;;;;;12.20;6.63;;;10.70;99.90;;;;;;5015224;28;20049;-73
2024/03/02 03:08:38;;;;;;;18.77;6.10;;;10.70;99.90;;;;;;5015195;28;20036;-74
2024/03/02 03:11:04;;;;;;;10.95;5.53;;;10.70;99.90;;;;;;5015263;28;20033;-74
2024/03/02 03:13:34;;;;;;;13.40;6.38;;;10.70;99.90;;;;;;5015208;28;20489;-73
2024/03/02 03:16:00;;;;;;;12.07;7.22;;;10.70;99.90;;;;;;5014968;28;20025;-73
2024/03/02 03:18:25;;;;;;;15.70;7.50;;;10.70;99.90;;;;;;5015466;28;20022;-73
2024/03/02 03:20:51;;;;;;;17.67;7.43;;;10.70;99.90;;;;;;5015129;28;20026;-74
2024/03/02 03:23:17;;;;;;;13.55;7.10;;;10.70;99.90;;;;;;5013767;28;20511;-74
2024/03/02 03:25:43;;;;;;;15.68;7.47;;;10.70;99.90;;;;;;5014802;28;20013;-73
2024/03/02 03:28:09;;;;;;;14.75;7.68;;;10.60;99.90;;;;;;5014569;28;20066;-74
2024/03/02 03:30:39;;;;;;;16.48;6.88;;;10.60;99.90;;;;;;5014652;28;20018;-73
2024/03/02 03:33:08;;;;;;;18.88;7.55;;;10.60;99.90;;;;;;5014703;28;20516;-73
2024/03/02 03:35:34;;;;;;;15.60;7.57;;;10.60;99.90;;;;;;5013382;28;20057;-73
2024/03/02 03:38:00;;;;;;;12.63;7.00;;;10.50;99.90;;;;;;5014734;28;20030;-74
2024/03/02 03:40:26;;;;;;;14.32;7.13;;;10.50;99.90;;;;;;5014893;28;20052;-73
2024/03/02 03:42:53;;;;;;;13.57;7.00;;;10.50;99.90;;;;;;5014984;28;20030;-73
2024/03/02 03:45:19;;;;;;;11.57;6.57;;;10.50;99.90;;;;;;5013215;28;20038;-73
2024/03/02 03:47:45;;;;;;;12.60;5.97;;;10.50;99.90;;;;;;5014725;28;20433;-74
2024/03/02 03:50:10;;;;;;;20.27;6.53;;;10.50;99.90;;;;;;5014485;28;20050;-74
2024/03/02 03:52:36;;;;;;;15.60;6.57;;;10.50;99.90;;;;;;5014737;28;20413;-74
2024/03/02 03:55:02;;;;;;;13.52;6.57;;;10.50;99.90;;;;;;5014246;28;20378;-73
2024/03/02 03:57:28;;;;;;;14.00;7.05;;;10.50;99.90;;;;;;5013103;28;20030;-74
2024/03/02 03:59:53;;;;;;;15.48;7.43;;;10.50;99.90;;;;;;5015169;28;20037;-74
2024/03/02 04:02:19;;;;;;;9.82;6.07;;;10.50;99.90;;;;;;5013678;28;20505;-74
2024/03/02 04:04:45;;;;;;;10.00;6.47;;;10.50;99.90;;;;;;5014370;28;20101;-74
2024/03/02 04:07:12;;;;;;;20.60;7.80;;;10.50;99.90;;;;;;5014741;28;20026;-74
2024/03/02 04:09:40;;;;;;;15.50;9.75;;;10.50;99.90;;;;;;5014573;28;20155;-74
2024/03/02 04:13:29;;;;;;;23.02;16.80;;;10.50;99.90;;;;;;5014404;28;20032;-74
2024/03/02 04:20:23;;;;;;;18.53;7.37;;;10.40;99.90;;;;;;4878518;29;20052;-74
2024/03/02 04:26:25;;;;;;;14.75;6.85;;;10.40;99.90;;;;;;4860970;29;20498;-74
2024/03/02 04:29:29;;;;;;;13.70;7.55;;;10.40;99.90;;;;;;4862508;29;20433;-74
2024/03/02 04:32:51;;;;;;;10.80;7.22;;;10.40;99.90;;;;;;4885076;29;20245;-73
2024/03/02 04:35:57;;;;;;;11.32;7.50;;;10.40;99.90;;;;;;4930170;29;20586;-74
2024/03/02 04:38:23;;;;;;;12.05;7.60;;;10.40;99.90;;;;;;4933935;29;20079;-74
2024/03/02 04:40:49;;;;;;;13.15;7.65;;;10.40;99.90;;;;;;4999558;28;20436;-74
2024/03/02 04:43:16;;;;;;;13.23;7.10;;;10.40;99.90;;;;;;5012786;28;20026;-73
2024/03/02 04:45:42;;;;;;;14.52;6.82;;;10.40;99.90;;;;;;5013677;28;20402;-74
2024/03/02 04:48:08;;;;;;;10.07;6.35;;;10.40;99.90;;;;;;5013360;28;20316;-73
2024/03/02 04:50:34;;;;;;;9.52;6.82;;;10.40;99.90;;;;;;5013115;28;20084;-74
2024/03/02 04:53:00;;;;;;;10.40;5.78;;;10.40;99.90;;;;;;5013583;28;20036;-73
2024/03/02 04:57:57;;;;;;;13.48;5.90;;;10.40;99.90;;;;;;5013399;28;20034;-74
2024/03/02 05:00:22;;;;;;;11.05;5.75;;;10.40;99.90;;;;;;5013150;28;20026;-74
2024/03/02 05:02:48;;;;;;;12.60;5.10;;;10.40;99.90;;;;;;5012192;28;20026;-73
2024/03/02 05:05:17;;;;;;;9.32;5.13;;;10.40;99.90;;;;;;5012616;28;20068;-74
2024/03/02 05:07:43;;;;;;;13.13;4.85;;;10.40;99.90;;;;;;5012425;28;20368;-73
2024/03/02 05:10:11;;;;;;;11.25;4.95;;;10.40;99.90;;;;;;5012259;28;20014;-73
2024/03/02 05:12:56;;;;;;;13.27;5.10;;;10.40;99.90;;;;;;5012045;28;20367;-74
2024/03/02 05:15:22;;;;;;;11.38;4.95;;;10.40;99.90;;;;;;5009402;28;20041;-73
2024/03/02 05:17:48;;;;;;;8.88;4.32;;;10.40;99.90;;;;;;5013176;28;20026;-74
2024/03/02 05:20:14;;;;;;;12.02;4.63;;;10.50;99.90;;;;;;5012730;28;20164;-74
2024/03/02 05:22:40;;;;;;;8.30;4.05;;;10.50;99.90;;;;;;5012747;28;20096;-74
2024/03/02 05:25:06;;;;;;;9.00;3.90;;;10.50;99.90;;;;;;5012900;28;20104;-74
2024/03/02 05:27:35;;;;;;;10.77;4.38;;;10.50;99.90;;;;;;5012902;28;20121;-74
2024/03/02 05:30:01;;;;;;;10.35;4.85;;;10.50;99.90;;;;;;5012929;28;20116;-74
2024/03/02 05:32:28;;;;;;;8.20;3.90;;;10.50;99.90;;;;;;5013027;28;20223;-74
2024/03/02 05:34:54;;;;;;;7.07;4.13;;;10.50;99.90;;;;;;5012849;28;20533;-73
2024/03/02 05:37:20;;;;;;;5.20;3.85;;;10.50;99.90;;;;;;5012633;28;20029;-74
2024/03/02 05:39:46;;;;;;;7.25;3.92;;;10.50;99.90;;;;;;5013462;28;20029;-73
2024/03/02 05:42:12;;;;;;;8.05;4.57;;;10.50;99.90;;;;;;5013395;28;20410;-74
2024/03/02 05:44:38;;;;;;;5.38;3.88;;;10.50;99.90;;;;;;5013452;28;20034;-74
2024/03/02 05:47:16;;;;;;;7.10;3.95;;;10.60;99.90;;;;;;5013092;28;20037;-74
2024/03/02 06:00:26;;;;;;;8.32;3.88;;;10.50;99.90;;;;;;4918068;29;20424;-73
2024/03/02 06:09:52;;;;;;;5.30;3.97;;;10.50;99.90;;;;;;4917394;29;20135;-73
2024/03/02 06:16:05;;;;;;;10.05;3.90;;;10.50;99.90;;;;;;4990428;28;20478;-74
2024/03/02 06:18:31;;;;;;;8.25;3.47;;;10.50;99.90;;;;;;5014352;28;20547;-74
2024/03/02 06:20:57;;;;;;;7.82;3.20;;;10.50;99.90;;;;;;5013598;28;20371;-74
2024/03/02 06:23:23;;;;;;;7.82;3.58;;;10.60;99.90;;;;;;5014959;28;20061;-73
2024/03/02 06:25:49;;;;;;;6.68;3.60;;;10.50;99.90;;;;;;5014716;28;20030;-73
2024/03/02 06:28:15;;;;;;;10.60;3.88;;;10.50;99.90;;;;;;5015904;28;20037;-74
2024/03/02 06:30:43;;;;;;;6.55;3.50;;;10.60;99.90;;;;;;5015794;28;20026;-73
2024/03/02 06:33:09;;;;;;;6.38;3.40;;;10.60;99.90;;;;;;5015721;28;20448;-73
2024/03/02 06:35:35;;;;;;;11.38;5.22;;;10.60;99.90;;;;;;5015666;28;20024;-73
2024/03/02 06:38:06;;;;;;;8.20;5.10;;;10.50;99.90;;;;;;5014640;28;20025;-74
2024/03/02 06:40:33;;;;;;;7.78;5.40;;;10.50;99.90;;;;;;5014450;28;20040;-74
2024/03/02 06:42:59;;;;;;;10.88;5.97;;;10.50;99.90;;;;;;5014973;28;20509;-74
2024/03/02 06:45:25;;;;;;;9.32;6.13;;;10.50;99.90;;;;;;5014686;28;20026;-74
2024/03/02 06:47:51;;;;;;;15.05;6.63;;;10.50;99.90;;;;;;5015161;28;20034;-73
2024/03/02 06:50:16;;;;;;;12.27;6.88;;;10.50;99.90;;;;;;5014053;28;20046;-73
2024/03/02 06:52:43;;;;;;;11.20;6.30;;;10.50;99.90;;;;;;5014576;28;20076;-72
2024/03/02 06:55:09;;;;;;;10.23;6.55;;;10.50;99.90;;;;;;5015042;28;20033;-73
2024/03/02 06:57:34;;;;;;;11.13;5.85;;;10.50;99.90;;;;;;5015186;28;20034;-72
2024/03/02 07:00:00;;;;;;;10.57;6.50;;;10.50;99.90;;;;;;5015492;28;20037;-73
2024/03/02 07:02:29;;;;;;;7.90;6.28;;;10.50;99.90;;;;;;5014818;28;20123;-73
2024/03/02 07:04:55;;;;;;;15.73;6.43;;;10.60;99.90;;;;;;5014748;28;20048;-73
2024/03/02 07:07:20;;;;;;;8.27;5.95;;;10.60;99.90;;;;;;5012937;28;20034;-73
2024/03/02 07:09:47;;;;;;;9.40;5.40;;;10.60;99.90;;;;;;5012961;28;20394;-73
2024/03/02 07:12:14;;;;;;;7.90;5.57;;;10.60;99.90;;;;;;5014989;28;20030;-73
2024/03/02 07:17:24;;;;;;;8.20;4.95;;;10.60;99.90;;;;;;5014906;28;20059;-73
2024/03/02 07:19:51;;;;;;;8.05;4.63;;;10.60;99.90;;;;;;5015491;28;20021;-73
2024/03/02 07:22:17;;;;;;;7.43;5.22;;;10.60;99.90;;;;;;5015447;28;20029;-73
2024/03/02 07:25:07;;;;;;;9.30;5.38;;;10.60;99.90;;;;;;5015300;28;20029;-74
2024/03/02 07:28:35;;;;;;;10.27;5.57;;;10.60;99.90;;;;;;5014657;28;20378;-74
2024/03/02 07:35:14;;;;;;;8.63;5.68;;;10.60;99.90;;;;;;4990626;28;20037;-72
2024/03/02 07:38:17;;;;;;;7.68;4.63;;;10.60;99.90;;;;;;4988390;28;20129;-72
2024/03/02 07:44:06;;;;;;;7.07;4.17;;;10.70;99.90;;;;;;4936450;29;20111;-72
2024/03/02 07:49:37;;;;;;;6.85;4.78;;;10.80;99.90;;;;;;4991951;28;20145;-70
2024/03/02 07:52:03;;;;;;;6.13;4.18;;;10.80;99.90;;;;;;4993021;28;20372;-71
2024/03/02 07:54:29;;;;;;;6.38;4.07;;;10.80;99.90;;;;;;4991140;28;20426;-73
2024/03/02 07:56:55;;;;;;;8.57;4.15;;;10.80;99.90;;;;;;4991899;28;20046;-72
2024/03/02 07:59:21;;;;;;;5.72;3.90;;;10.90;99.90;;;;;;4994439;28;20026;-72
2024/03/02 08:01:49;;;;;;;6.38;4.47;;;10.90;99.90;;;;;;4992129;28;20516;-72
2024/03/02 08:04:14;;;;;;;8.05;4.40;;;10.90;99.90;;;;;;4994008;28;20034;-72
2024/03/02 08:06:40;;;;;;;12.68;5.57;;;10.90;99.90;;;;;;4977543;28;20026;-72
2024/03/02 08:09:10;;;;;;;8.60;5.82;;;11.00;99.90;;;;;;4974197;28;20093;-72
2024/03/02 08:11:36;;;;;;;13.07;7.30;;;11.00;99.90;;;;;;4974927;28;20498;-72
2024/03/02 08:14:01;;;;;;;8.73;6.53;;;11.00;99.90;;;;;;4974830;28;20577;-73
2024/03/02 08:16:27;;;;;;;10.00;6.53;;;11.00;99.90;;;;;;4974727;28;20054;-72
2024/03/02 08:18:53;;;;;;;14.10;6.47;;;11.00;99.90;;;;;;4979273;28;20027;-72
2024/03/02 08:21:20;;;;;;;13.70;7.50;;;11.00;99.90;;;;;;4974678;28;20027;-72
2024/03/02 08:23:45;;;;;;;11.73;6.80;;;11.00;99.90;;;;;;4974221;28;20507;-72
2024/03/02 08:26:11;;;;;;;9.95;6.90;;;11.10;99.90;;;;;;4979028;28;20023;-72
2024/03/02 08:28:40;;;;;;;12.18;6.57;;;11.10;99.90;;;;;;4987348;28;20479;-72
2024/03/02 08:31:06;;;;;;;12.75;7.28;;;11.10;99.90;;;;;;4974169;28;20479;-73
2024/03/02 08:33:32;;;;;;;11.70;6.68;;;11.10;99.90;;;;;;4973769;28;20027;-72
2024/03/02 08:35:58;;;;;;;12.93;6.95;;;11.10;99.90;;;;;;4973433;28;20026;-72
2024/03/02 08:38:25;;;;;;;12.57;6.93;;;11.10;99.90;;;;;;4973464;28;20058;-72
2024/03/02 08:40:51;;;;;;;8.60;6.30;;;11.20;99.90;;;;;;4974233;28;20046;-72
2024/03/02 08:43:18;;;;;;;12.38;6.60;;;11.20;99.90;;;;;;4982445;28;20023;-73
2024/03/02 08:45:45;;;;;;;11.25;6.47;;;11.20;99.90;;;;;;4992836;28;20030;-72
2024/03/02 08:48:11;;;;;;;8.30;6.40;;;11.20;99.90;;;;;;4991790;28;20458;-73
2024/03/02 08:50:37;;;;;;;8.30;5.57;;;11.20;99.90;;;;;;4998891;28;20421;-70
2024/03/02 08:53:04;;;;;;;9.20;5.78;;;11.20;99.90;;;;;;5012433;28;20431;-70
2024/03/02 08:55:30;;;;;;;7.72;6.40;;;11.30;99.90;;;;;;5013759;28;20029;-70
2024/03/02 09:01:33;;;;;;;13.30;5.55;;;11.30;99.90;;;;;;4971544;28;20031;-70
2024/03/02 09:04:23;;;;;;;;;;;;;;;;;;;;;
2024/03/02 09:07:01;;;;;;;9.75;5.28;;;11.40;99.90;;;;;;4895827;29;20040;-70
2024/03/02 09:16:49;;;;;;;9.93;6.03;;;11.40;99.90;;;;;;4821150;29;20041;-71
2024/03/02 09:20:07;;;;;;;9.35;5.28;;;11.40;99.90;;;;;;4849439;29;20033;-71
2024/03/02 09:22:42;;;;;;;11.05;4.75;;;11.50;99.90;;;;;;4868640;29;20447;-71
2024/03/02 09:25:08;;;;;;;9.25;5.03;;;11.50;99.90;;;;;;4858666;29;20422;-71
2024/03/02 09:27:38;;;;;;;9.63;4.25;;;11.40;99.90;;;;;;4906616;28;20468;-71
2024/03/02 09:30:13;;;;;;;8.10;4.97;;;11.50;99.90;;;;;;4992837;28;20387;-71
2024/03/02 09:32:39;;;;;;;8.45;5.43;;;11.40;99.90;;;;;;5012621;28;20052;-71
2024/03/02 09:35:05;;;;;;;10.93;5.75;;;11.50;99.90;;;;;;5012988;28;20030;-71
2024/03/02 09:37:31;;;;;;;8.38;5.22;;;11.50;99.90;;;;;;5012881;28;20022;-71
2024/03/02 09:39:57;;;;;;;10.70;6.18;;;11.50;99.90;;;;;;5012982;28;20639;-71
2024/03/02 09:42:24;;;;;;;8.32;6.40;;;11.60;99.90;;;;;;5013183;28;20022;-71
2024/03/02 09:44:49;;;;;;;12.82;7.03;;;11.60;99.90;;;;;;5012721;28;20037;-71
2024/03/02 09:47:15;;;;;;;7.50;5.72;;;11.60;99.90;;;;;;5012496;28;20034;-71
2024/03/02 09:49:41;;;;;;;9.23;4.85;;;11.60;99.90;;;;;;5011542;28;20058;-71
2024/03/02 09:52:07;;;;;;;11.77;4.47;;;11.60;99.90;;;;;;5012953;28;20050;-71
2024/03/02 09:54:33;;;;;;;8.02;4.15;;;11.70;99.90;;;;;;5012973;28;20026;-71
2024/03/02 09:57:01;;;;;;;5.35;3.80;;;11.70;99.90;;;;;;5012700;28;20045;-71
2024/03/02 09:59:27;;;;;;;7.65;3.90;;;11.70;99.90;;;;;;5012866;28;20022;-71
2024/03/02 10:01:58;;;;;;;6.63;3.40;;;11.70;99.90;;;;;;5012670;28;20080;-71
2024/03/02 10:04:26;;;;;;;6.45;4.45;;;11.70;99.90;;;;;;5012942;28;20026;-71
2024/03/02 10:07:09;;;;;;;9.82;4.78;;;11.80;99.90;;;;;;5013083;28;20030;-71
2024/03/02 10:09:34;;;;;;;12.00;7.28;;;11.80;99.90;;;;;;5012714;28;20042;-71
2024/03/02 10:12:08;;;;;;;13.23;7.78;;;11.80;99.90;;;;;;5011543;28;20018;-71
2024/03/02 10:14:34;;;;;;;9.00;6.15;;;11.80;99.90;;;;;;5012670;28;20022;-71
2024/03/02 10:17:06;;;;;;;7.80;5.10;;;11.90;99.90;;;;;;5012733;28;20026;-71
2024/03/02 10:19:34;;;;;;;7.03;4.75;;;11.90;99.90;;;;;;5012766;28;20520;-71
2024/03/02 10:22:02;;;;;;;7.22;4.35;;;11.90;99.90;;;;;;5013189;28;20399;-71
2024/03/02 10:24:34;;;;;;;6.00;3.45;;;11.90;99.90;;;;;;5013377;28;20381;-71
2024/03/02 10:27:00;;;;;;;7.05;3.40;;;12.00;99.90;;;;;;5013101;28;20433;-70
2024/03/02 10:29:29;;;;;;;4.25;2.83;;;12.00;99.90;;;;;;5012609;28;20038;-73
2024/03/02 10:32:02;;;;;;;5.22;3.00;;;12.00;99.90;;;;;;5013141;28;20014;-71
2024/03/02 10:38:08;;;;;;;6.22;2.90;;;11.90;99.90;;;;;;4990992;28;20026;-71
2024/03/02 10:48:10;;;;;;;4.75;3.17;;;11.90;99.90;;;;;;4917361;29;19907;-71
2024/03/02 10:58:47;;;;;;;7.35;3.13;;;11.90;99.90;;;;;;4841555;29;20542;-71
2024/03/02 11:01:13;;;;;;;5.00;3.03;;;11.90;99.90;;;;;;4820825;29;20472;-71
2024/03/02 11:03:42;;;;;;;6.30;3.15;;;11.90;99.90;;;;;;4879684;29;20040;-71
2024/03/02 11:06:09;;;;;;;10.57;6.90;;;11.90;99.90;;;;;;4946281;28;20046;-71
2024/03/02 11:08:39;;;;;;;10.48;7.10;;;11.90;99.90;;;;;;4995549;28;20049;-72
2024/03/02 11:11:15;;;;;;;8.10;4.55;;;11.90;99.90;;;;;;4995796;28;20383;-71
2024/03/02 11:13:46;;;;;;;4.82;3.47;;;12.00;99.90;;;;;;4995715;28;20139;-72
2024/03/02 11:16:26;;;;;;;5.47;2.90;;;12.00;99.90;;;;;;4995774;28;20021;-71
2024/03/02 11:18:52;;;;;;;4.47;2.83;;;12.10;99.90;;;;;;4995733;28;20446;-71
2024/03/02 11:21:19;;;;;;;5.35;3.03;;;12.10;99.90;;;;;;4995629;28;20102;-72
2024/03/02 11:23:45;;;;;;;6.90;4.70;;;12.10;99.90;;;;;;4995364;28;20117;-72
2024/03/02 11:26:20;;;;;;;9.75;5.75;;;12.10;99.90;;;;;;4995098;28;20097;-72
2024/03/02 11:28:46;;;;;;;5.70;4.13;;;12.20;99.90;;;;;;4995167;28;20494;-71
2024/03/02 11:31:12;;;;;;;4.57;2.65;;;12.20;99.90;;;;;;4993974;28;20029;-71
2024/03/02 11:33:38;;;;;;;3.17;2.20;;;12.30;99.90;;;;;;4995448;28;20109;-72
2024/03/02 11:36:06;;;;;;;6.75;2.08;;;12.40;99.90;;;;;;4995584;28;20031;-72
2024/03/02 11:38:33;;;;;;;7.40;2.20;;;12.50;99.90;;;;;;4995527;28;20037;-72
2024/03/02 11:41:01;;;;;;;2.42;1.52;;;12.60;99.90;;;;;;4995412;28;20471;-72
2024/03/02 11:43:29;;;;;;;5.00;1.55;;;12.70;99.90;;;;;;4994908;28;20030;-72
2024/03/02 11:45:59;;;;;;;4.60;1.67;;;12.80;99.90;;;;;;4995375;28;20037;-72
2024/03/02 11:48:26;;;;;;;3.65;1.90;;;12.80;99.90;;;;;;4995344;28;20394;-72
2024/03/02 11:50:52;;;;;;;3.95;1.60;;;12.90;99.90;;;;;;4994958;28;20406;-72
2024/03/02 11:53:21;;;;;;;3.58;1.55;;;13.00;99.90;;;;;;4993889;28;20447;-72
2024/03/02 11:55:49;;;;;;;3.25;1.60;;;13.00;99.90;;;;;;4993636;28;20018;-72
2024/03/02 11:58:24;;;;;;;3.63;1.25;;;13.10;99.90;;;;;;4995095;28;20194;-72
2024/03/02 12:00:57;;;;;;;3.05;1.33;;;13.10;99.90;;;;;;4995397;28;20026;-71
2024/03/02 12:03:25;;;;;;;24.45;17.27;;;13.20;99.90;;;;;;4995265;28;20084;-71
2024/03/02 12:05:55;;;;;;;7.90;5.30;;;13.10;99.90;;;;;;4995462;28;20022;-72
2024/03/02 12:08:21;;;;;;;2.45;1.60;;;13.20;99.90;;;;;;4995015;28;20030;-71
2024/03/02 12:25:17;;;;;;;1.67;0.70;;;14.00;99.90;;;;;;4953801;29;20058;-71
2024/03/02 12:27:49;;;;;;;1.77;0.60;;;14.00;99.90;;;;;;4876297;29;20112;-72
2024/03/02 12:31:00;;;;;;;3.40;0.60;;;14.00;99.90;;;;;;4912137;29;20469;-72
2024/03/02 12:33:29;;;;;;;1.50;0.90;;;13.90;99.90;;;;;;4878606;29;20473;-74
2024/03/02 12:35:58;;;;;;;4.18;0.90;;;13.80;99.90;;;;;;4915644;29;20444;-73
2024/03/02 12:38:25;;;;;;;1.75;0.80;;;13.70;99.90;;;;;;4927642;29;20423;-73
2024/03/02 12:40:52;;;;;;;3.38;0.90;;;13.60;99.90;;;;;;4952861;29;20114;-73
2024/03/02 12:43:18;;;;;;;5.05;1.25;;;13.60;99.90;;;;;;4937143;29;20365;-73
2024/03/02 12:45:44;;;;;;;6.05;1.50;;;13.50;99.90;;;;;;4959369;28;20142;-73
2024/03/02 12:48:10;;;;;;;3.88;0.70;;;13.50;99.90;;;;;;4953797;28;20500;-74
2024/03/02 12:50:36;;;;;;;3.15;0.80;;;13.40;99.90;;;;;;4970507;28;20023;-70
2024/03/02 12:53:02;;;;;;;4.25;0.68;;;13.40;99.90;;;;;;4967490;28;20061;-74
2024/03/02 12:55:28;;;;;;;3.30;0.60;;;13.40;99.90;;;;;;4965893;28;20031;-74
2024/03/02 12:57:54;;;;;;;3.35;0.93;;;13.40;99.90;;;;;;4975915;28;20394;-74
2024/03/02 13:00:21;;;;;;;3.45;0.70;;;13.40;99.90;;;;;;5011976;28;20037;-74
2024/03/02 13:02:48;;;;;;;3.15;0.88;;;13.30;99.90;;;;;;5012312;28;20513;-74
2024/03/02 13:05:14;;;;;;;3.10;0.68;;;13.30;99.90;;;;;;5009339;28;20670;-74
2024/03/02 13:07:40;;;;;;;2.45;1.02;;;13.30;99.90;;;;;;5011693;28;20036;-73
2024/03/02 13:10:09;;;;;;;4.03;1.00;;;13.20;99.90;;;;;;5011560;28;20022;-73
2024/03/02 13:12:36;;;;;;;1.75;0.80;;;13.20;99.90;;;;;;5013100;28;20207;-74
2024/03/02 13:15:03;;;;;;;2.97;0.90;;;13.20;99.90;;;;;;5011695;28;20037;-74
2024/03/02 13:17:29;;;;;;;1.95;0.90;;;13.20;99.90;;;;;;5009498;28;20113;-73
2024/03/02 13:19:56;;;;;;;3.10;1.20;;;13.10;99.90;;;;;;5010716;28;20025;-73
2024/03/02 13:22:23;;;;;;;3.78;1.80;;;13.10;99.90;;;;;;5011030;28;20026;-74
2024/03/02 13:24:49;;;;;;;3.05;1.05;;;13.10;99.90;;;;;;5009581;28;20025;-73
2024/03/02 13:27:16;;;;;;;4.43;1.20;;;13.00;99.90;;;;;;5011218;28;20029;-74
2024/03/02 13:29:42;;;;;;;3.80;1.40;;;13.00;99.90;;;;;;5011305;28;20068;-73
2024/03/02 13:32:09;;;;;;;9.15;1.23;;;12.90;99.90;;;;;;5013186;28;20033;-73
2024/03/02 13:34:37;;;;;;;35.53;2.78;;;13.00;99.90;;;;;;5013734;28;20025;-73
2024/03/02 13:37:05;;;;;;;5.72;1.40;;;12.90;99.90;;;;;;5013583;28;20108;-73
2024/03/02 13:39:39;;;;;;;2.90;1.35;;;12.90;99.90;;;;;;5013236;28;20473;-73
2024/03/02 13:42:14;;;;;;;5.43;1.00;;;12.90;99.90;;;;;;5013511;28;20022;-72
2024/03/02 14:01:51;;;;;;;7.03;2.03;;;12.70;99.90;;;;;;4919376;29;20090;-74
2024/03/02 14:04:26;;;;;;;5.70;1.77;;;12.70;99.90;;;;;;4952290;29;20028;-74
2024/03/02 14:07:21;;;;;;;5.35;1.85;;;12.70;99.90;;;;;;4951890;29;20042;-73
2024/03/02 14:09:47;;;;;;;4.22;1.73;;;12.70;99.90;;;;;;4951657;29;20051;-72
2024/03/02 14:12:13;;;;;;;3.70;1.75;;;12.70;99.90;;;;;;4974857;28;20038;-73
2024/03/02 14:14:39;;;;;;;4.00;1.40;;;12.70;99.90;;;;;;5012848;28;20032;-73
2024/03/02 14:17:06;;;;;;;6.35;1.60;;;12.70;99.90;;;;;;5014591;28;20049;-73
2024/03/02 14:19:32;;;;;;;3.80;1.30;;;12.60;99.90;;;;;;5015854;28;20029;-73
2024/03/02 14:21:58;;;;;;;3.70;1.45;;;12.70;99.90;;;;;;5015069;28;20424;-73
2024/03/02 14:24:25;;;;;;;5.03;1.25;;;12.70;99.90;;;;;;5016026;28;20401;-73
2024/03/02 14:26:52;;;;;;;4.55;1.52;;;12.60;99.90;;;;;;5016128;28;20010;-73
2024/03/02 14:29:18;;;;;;;5.60;1.75;;;12.60;99.90;;;;;;5016486;28;20044;-73
2024/03/02 14:31:47;;;;;;;3.40;1.65;;;12.60;99.90;;;;;;5015809;28;20018;-74
2024/03/02 14:34:14;;;;;;;5.57;1.85;;;12.60;99.90;;;;;;5016187;28;20026;-73
2024/03/02 14:36:41;;;;;;;6.70;2.15;;;12.60;99.90;;;;;;5016160;28;20022;-73
2024/03/02 14:39:10;;;;;;;2.92;1.60;;;12.60;99.90;;;;;;5015973;28;20030;-73
2024/03/02 14:41:36;;;;;;;7.82;2.22;;;12.60;99.90;;;;;;5015726;28;20470;-73
2024/03/02 14:44:02;;;;;;;7.18;2.42;;;12.60;99.90;;;;;;5015970;28;20067;-74
2024/03/02 14:46:29;;;;;;;5.07;2.50;;;12.60;99.90;;;;;;5015629;28;20037;-74
2024/03/02 14:48:54;;;;;;;7.47;2.97;;;12.60;99.90;;;;;;5014029;28;20486;-74
2024/03/02 14:51:20;;;;;;;6.03;3.00;;;12.60;99.90;;;;;;5012750;28;20116;-72
2024/03/02 14:53:46;;;;;;;9.48;5.75;;;12.60;99.90;;;;;;5011455;28;20061;-74
2024/03/02 14:56:13;;;;;;;11.63;7.85;;;12.70;99.90;;;;;;5013907;28;20077;-74